Time;durP1;ratioP1;P1;durP2;ratioP2;P2;SDS_P1;SDS_P2;PMS_P1;PMS_P2;Temp;Humidity;BMP_temperature;BMP_pressure;BME280_temperature;BME280_humidity;BME280_pressure;Samples;Min_cycle;Max_cycle;Signal;HPM_P1;HPM_P2
2022/05/19 00:01:17;;;;;;;19.70;12.65;;;;;;;17.85;100.00;101754.56;5093748;28;20015;-71
2022/05/19 00:03:43;;;;;;;18.23;11.27;;;;;;;17.85;100.00;101754.56;5099476;28;20047;-71
2022/05/19 00:06:09;;;;;;;14.77;11.20;;;;;;;17.92;100.00;101749.28;5096875;28;20112;-72
2022/05/19 00:08:36;;;;;;;15.23;11.05;;;;;;;17.94;100.00;101739.53;5113391;28;20533;-72
2022/05/19 00:11:06;;;;;;;18.58;11.32;;;;;;;17.98;100.00;101739.50;5108704;28;20028;-71
2022/05/19 00:13:32;;;;;;;15.70;10.98;;;;;;;17.97;100.00;101740.44;5097298;28;20110;-71
2022/05/19 00:15:58;;;;;;;23.00;11.57;;;;;;;17.99;100.00;101743.09;5101867;28;20028;-71
2022/05/19 00:18:23;;;;;;;16.08;11.40;;;;;;;18.05;100.00;101744.84;5099752;28;20024;-71
2022/05/19 00:20:49;;;;;;;16.95;11.52;;;;;;;18.03;100.00;101742.19;5110844;28;20023;-72
2022/05/19 00:23:15;;;;;;;22.25;12.20;;;;;;;18.03;100.00;101731.53;5098608;28;20027;-72
2022/05/19 00:25:40;;;;;;;20.67;12.30;;;;;;;18.10;100.00;101729.75;5101787;28;20111;-71
2022/05/19 00:28:06;;;;;;;16.02;11.57;;;;;;;18.11;100.00;101727.09;5110571;28;20031;-71
2022/05/19 00:30:33;;;;;;;19.10;12.32;;;;;;;18.11;100.00;101729.75;5105440;28;20471;-72
2022/05/19 00:32:58;;;;;;;23.58;11.20;;;;;;;18.11;100.00;101731.50;5096347;28;20034;-71
2022/05/19 00:35:24;;;;;;;16.02;11.27;;;;;;;18.15;100.00;101731.53;5113074;28;20063;-72
2022/05/19 00:37:49;;;;;;;22.73;13.15;;;;;;;18.15;100.00;101720.88;5116356;28;20023;-72
2022/05/19 00:40:17;;;;;;;19.02;12.40;;;;;;;18.20;100.00;101720.84;5106740;28;20098;-70
2022/05/19 00:42:45;;;;;;;18.40;13.27;;;;;;;18.21;100.00;101709.31;5109095;28;20094;-71
2022/05/19 00:45:25;;;;;;;22.42;13.25;;;;;;;18.18;100.00;101702.22;5100230;28;20413;-71
2022/05/19 00:48:03;;;;;;;24.42;13.48;;;;;;;18.18;100.00;101701.34;5085259;28;20039;-71
2022/05/19 00:50:36;;;;;;;22.48;14.38;;;;;;;18.18;100.00;101696.88;5097181;28;20107;-71
2022/05/19 00:53:04;;;;;;;;;;;;;;;18.25;100.00;101696.91;5105338;28;20038;-71
2022/05/19 00:55:36;;;;;;;20.83;13.45;;;;;;;18.29;100.00;101698.66;5108439;28;20015;-71
2022/05/19 00:58:15;;;;;;;22.67;13.27;;;;;;;18.31;100.00;101699.53;5098371;28;20024;-70
2022/05/19 01:00:41;;;;;;;20.65;13.80;;;;;;;18.33;100.00;101685.31;5094927;28;20113;-71
2022/05/19 01:03:07;;;;;;;22.58;14.18;;;;;;;18.31;100.00;101686.22;5100983;28;20023;-70
2022/05/19 01:05:43;;;;;;;21.45;14.52;;;;;;;18.33;100.00;101680.00;5102009;28;20043;-71
2022/05/19 01:08:25;;;;;;;22.98;14.35;;;;;;;18.34;100.00;101681.78;5096033;28;20034;-71
2022/05/19 01:10:52;;;;;;;18.83;13.07;;;;;;;18.33;100.00;101676.44;5093308;28;20016;-70
2022/05/19 01:13:18;;;;;;;20.95;14.45;;;;;;;18.33;100.00;101676.44;5092845;28;20075;-71
2022/05/19 01:15:52;;;;;;;19.05;12.90;;;;;;;18.36;100.00;101674.66;5095295;28;20067;-71
2022/05/19 01:18:18;;;;;;;22.55;14.50;;;;;;;18.37;100.00;101664.88;5102053;28;20475;-71
2022/05/19 01:20:45;;;;;;;21.73;15.05;;;;;;;18.37;100.00;101659.56;5114835;28;20019;-72
2022/05/19 01:23:23;;;;;;;25.83;14.93;;;;;;;18.35;100.00;101646.25;5106543;28;20176;-72
2022/05/19 01:26:05;;;;;;;19.77;14.80;;;;;;;18.35;100.00;101650.66;5098056;28;20495;-72
2022/05/19 01:28:30;;;;;;;22.85;15.73;;;;;;;18.31;100.00;101648.91;5100438;28;20035;-72
2022/05/19 01:30:56;;;;;;;22.05;15.35;;;;;;;18.31;100.00;101648.91;5095502;28;20020;-72
2022/05/19 01:33:21;;;;;;;21.70;14.85;;;;;;;18.31;100.00;101648.91;5104922;28;20027;-71
2022/05/19 01:35:47;;;;;;;22.50;15.57;;;;;;;18.34;100.00;101655.13;5097734;28;20024;-71
2022/05/19 01:38:21;;;;;;;24.88;16.35;;;;;;;18.38;100.00;101653.34;5108933;28;20480;-71
2022/05/19 01:41:31;;;;;;;22.98;14.85;;;;;;;18.39;100.00;101647.09;5100101;28;20430;-71
2022/05/19 01:44:27;;;;;;;21.85;14.70;;;;;;;18.42;100.00;101641.78;5080812;28;20028;-71
2022/05/19 01:47:17;;;;;;;22.60;16.02;;;;;;;18.44;100.00;101640.00;5101064;28;20436;-71
2022/05/19 01:49:53;;;;;;;20.27;15.98;;;;;;;18.50;100.00;101649.75;5091380;28;20034;-71
2022/05/19 01:52:26;;;;;;;27.35;15.70;;;;;;;18.53;100.00;101645.28;5093773;28;20521;-72
2022/05/19 01:55:01;;;;;;;21.73;15.75;;;;;;;18.55;100.00;101642.63;5084086;28;20081;-72
2022/05/19 01:57:34;;;;;;;25.13;14.88;;;;;;;18.54;100.00;101631.09;5101535;28;20020;-72
2022/05/19 02:00:10;;;;;;;26.83;15.23;;;;;;;18.53;100.00;101626.63;5096894;28;20071;-71
2022/05/19 02:02:42;;;;;;;25.70;15.50;;;;;;;18.52;100.00;101621.31;5090025;28;20047;-71
2022/05/19 02:05:27;;;;;;;22.05;16.27;;;;;;;18.56;100.00;101617.75;5094881;28;20476;-71
2022/05/19 02:07:56;;;;;;;21.42;16.35;;;;;;;18.59;100.00;101617.72;5093693;28;20024;-71
2022/05/19 02:10:26;;;;;;;21.70;15.48;;;;;;;18.58;100.00;101639.06;5108059;28;20024;-71
2022/05/19 02:12:54;;;;;;;21.23;15.45;;;;;;;18.46;100.00;101648.88;5104043;28;20050;-71
2022/05/19 02:15:22;;;;;;;21.27;16.45;;;;;;;18.37;100.00;101686.22;5094788;28;20020;-71
2022/05/19 02:17:50;;;;;;;29.42;17.95;;;;;;;18.23;100.00;101709.31;5105162;28;20040;-71
2022/05/19 02:20:19;;;;;;;28.73;18.40;;;;;;;18.20;100.00;101715.53;5106007;28;20028;-71
2022/05/19 02:22:45;;;;;;;37.63;23.33;;;;;;;18.20;100.00;101697.78;5102983;28;20032;-71
2022/05/19 02:25:18;;;;;;;36.88;23.27;;;;;;;18.11;100.00;101695.13;5107828;28;20035;-71
2022/05/19 02:27:49;;;;;;;35.78;22.75;;;;;;;18.04;100.00;101690.69;5108906;28;20023;-71
2022/05/19 02:30:20;;;;;;;37.85;24.83;;;;;;;17.96;100.00;101688.03;5108098;28;20380;-71
2022/05/19 02:32:46;;;;;;;35.15;23.08;;;;;;;17.94;100.00;101680.94;5099851;28;20020;-71
2022/05/19 02:35:12;;;;;;;37.75;24.40;;;;;;;17.90;100.00;101700.44;5106912;28;20028;-71
2022/05/19 02:37:38;;;;;;;36.75;25.13;;;;;;;17.81;100.00;101701.31;5101729;28;20111;-71
2022/05/19 02:40:04;;;;;;;38.25;27.05;;;;;;;17.79;100.00;101709.28;5093938;28;20111;-71
2022/05/19 02:42:30;;;;;;;40.90;28.08;;;;;;;17.83;100.00;101718.19;5105108;28;20031;-71
2022/05/19 02:44:55;;;;;;;42.60;29.60;;;;;;;17.82;100.00;101721.72;5089015;28;20048;-71
2022/05/19 02:47:20;;;;;;;41.80;30.85;;;;;;;17.87;100.00;101707.53;5102128;28;20040;-71
2022/05/19 02:49:46;;;;;;;44.13;31.15;;;;;;;17.90;100.00;101705.75;5094945;28;20020;-71
2022/05/19 02:52:11;;;;;;;48.50;31.42;;;;;;;17.96;100.00;101706.69;5093075;28;20078;-71
2022/05/19 02:54:36;;;;;;;44.78;31.60;;;;;;;18.01;100.00;101698.69;5092531;28;20601;-71
2022/05/19 02:57:02;;;;;;;45.38;32.42;;;;;;;18.05;100.00;101703.13;5094328;28;20024;-71
2022/05/19 02:59:27;;;;;;;37.60;27.88;;;;;;;18.13;100.00;101719.09;5097264;28;20032;-71
2022/05/19 03:01:52;;;;;;;39.15;25.70;;;;;;;18.15;100.00;101707.56;5096571;28;20024;-71
2022/05/19 03:04:17;;;;;;;36.30;23.60;;;;;;;18.20;100.00;101713.78;5093720;28;20032;-71
2022/05/19 03:06:43;;;;;;;30.83;22.40;;;;;;;18.23;100.00;101704.91;5100569;28;20027;-71
2022/05/19 03:09:09;;;;;;;31.83;23.05;;;;;;;18.23;100.00;101709.31;5111872;28;20570;-71
2022/05/19 03:11:34;;;;;;;39.15;25.38;;;;;;;18.22;100.00;101707.53;5100586;28;20032;-70
2022/05/19 03:14:00;;;;;;;33.25;23.88;;;;;;;18.20;100.00;101711.13;5111995;28;20028;-71
2022/05/19 03:16:25;;;;;;;29.38;18.10;;;;;;;18.22;100.00;101664.91;5101123;28;20039;-70
2022/05/19 03:18:50;;;;;;;25.75;16.65;;;;;;;18.19;100.00;101666.72;5093572;28;20063;-71
2022/05/19 03:21:16;;;;;;;22.98;16.08;;;;;;;18.08;100.00;101684.50;5097254;28;20027;-70
2022/05/19 03:23:41;;;;;;;25.92;15.32;;;;;;;18.02;100.00;101673.81;5109140;28;20027;-70
2022/05/19 03:26:06;;;;;;;23.15;14.77;;;;;;;17.91;100.00;101678.25;5103569;28;20020;-70
2022/05/19 03:28:32;;;;;;;17.75;12.35;;;;;;;17.83;100.00;101679.13;5098214;28;20150;-71
2022/05/19 03:30:57;;;;;;;18.35;11.98;;;;;;;17.81;100.00;101680.91;5110849;28;20039;-71
2022/05/19 03:33:22;;;;;;;13.40;10.55;;;;;;;17.79;100.00;101674.69;5106923;28;20059;-71
2022/05/19 03:36:02;;;;;;;15.18;8.75;;;;;;;17.81;100.00;101675.59;5104122;28;20395;-71
2022/05/19 03:38:28;;;;;;;14.38;8.93;;;;;;;17.78;100.00;101776.72;5103100;28;20024;-71
2022/05/19 03:40:53;;;;;;;14.27;9.80;;;;;;;17.82;100.00;101873.47;5103781;28;20016;-70
2022/05/19 03:43:19;;;;;;;24.45;17.75;;;;;;;17.83;100.00;101873.47;5105778;28;20023;-71
2022/05/19 03:45:45;;;;;;;33.00;23.75;;;;;;;17.76;100.00;101876.16;5104381;28;20138;-70
2022/05/19 03:48:10;;;;;;;38.38;25.63;;;;;;;17.71;100.00;101854.81;5097292;28;20024;-69
2022/05/19 03:50:36;;;;;;;40.20;26.25;;;;;;;17.64;100.00;101858.34;5092584;28;20052;-71
2022/05/19 03:53:01;;;;;;;28.55;21.00;;;;;;;17.61;100.00;101859.22;5096835;28;20173;-69
2022/05/19 03:55:26;;;;;;;28.80;21.63;;;;;;;17.56;100.00;101833.47;5107269;28;20309;-71
2022/05/19 03:57:52;;;;;;;32.97;20.88;;;;;;;17.51;100.00;101837.00;5097373;28;20036;-70
2022/05/19 04:00:18;;;;;;;28.58;21.67;;;;;;;17.46;100.00;101841.44;5090392;28;20028;-69
2022/05/19 04:02:45;;;;;;;30.73;22.88;;;;;;;17.45;100.00;101829.00;5095156;28;20841;-69
2022/05/19 04:05:13;;;;;;;42.20;28.15;;;;;;;17.49;100.00;101803.28;5110195;28;20026;-69
2022/05/19 04:07:38;;;;;;;37.58;30.65;;;;;;;17.52;100.00;101790.88;5105885;28;20023;-69
2022/05/19 04:10:05;;;;;;;48.30;34.22;;;;;;;17.61;100.00;101783.81;5093249;28;20030;-69
2022/05/19 04:12:30;;;;;;;37.30;30.95;;;;;;;17.60;100.00;101811.31;5097550;28;20032;-69
2022/05/19 04:14:56;;;;;;;54.15;39.45;;;;;;;17.67;100.00;101792.69;5095495;28;20026;-70
2022/05/19 04:17:21;;;;;;;49.53;37.85;;;;;;;17.69;100.00;101776.75;5091927;28;20047;-70
2022/05/19 04:19:46;;;;;;;49.85;35.78;;;;;;;17.67;100.00;101787.34;5092243;28;20028;-69
2022/05/19 04:22:12;;;;;;;46.22;35.45;;;;;;;17.65;100.00;101791.81;5091459;28;20032;-69
2022/05/19 04:24:37;;;;;;;54.60;40.47;;;;;;;17.70;100.00;101778.50;5095994;28;20055;-69
2022/05/19 04:27:03;;;;;;;52.58;41.63;;;;;;;17.70;100.00;101783.81;5108217;28;20026;-69
2022/05/19 04:29:28;;;;;;;50.50;38.13;;;;;;;17.70;100.00;101792.72;5092419;28;20032;-70
2022/05/19 04:31:54;;;;;;;56.55;41.33;;;;;;;17.69;100.00;101787.38;5097520;28;20020;-69
2022/05/19 04:34:19;;;;;;;51.75;40.15;;;;;;;17.66;100.00;101780.28;5111958;28;20027;-69
2022/05/19 04:36:46;;;;;;;54.03;36.15;;;;;;;17.65;100.00;101780.28;5106354;28;20553;-69
2022/05/19 04:39:12;;;;;;;48.95;37.20;;;;;;;17.56;100.00;101767.81;5100966;28;20031;-69
2022/05/19 04:41:37;;;;;;;59.33;43.22;;;;;;;17.57;100.00;101774.06;5090637;28;20028;-69
2022/05/19 04:44:03;;;;;;;57.92;39.75;;;;;;;17.53;100.00;101758.06;5103732;28;20030;-69
2022/05/19 04:46:28;;;;;;;58.63;44.53;;;;;;;17.58;100.00;101755.44;5089699;28;20051;-69
2022/05/19 04:48:54;;;;;;;58.38;44.50;;;;;;;17.57;100.00;101758.09;5102380;28;20080;-70
2022/05/19 04:51:19;;;;;;;60.67;44.38;;;;;;;17.59;100.00;101753.63;5098770;28;20019;-70
2022/05/19 04:53:44;;;;;;;55.42;42.63;;;;;;;17.57;100.00;101758.09;5106704;28;20024;-69
2022/05/19 04:56:10;;;;;;;58.83;46.22;;;;;;;17.59;100.00;101762.50;5103932;28;20020;-69
2022/05/19 04:58:35;;;;;;;55.97;43.97;;;;;;;17.52;100.00;101764.25;5092056;28;20039;-69
2022/05/19 05:01:00;;;;;;;61.42;46.25;;;;;;;17.49;100.00;101758.94;5098586;28;20179;-69
2022/05/19 05:03:27;;;;;;;72.25;53.03;;;;;;;17.50;100.00;101766.03;5090308;28;20517;-70
2022/05/19 05:05:52;;;;;;;71.80;51.80;;;;;;;17.53;100.00;101763.38;5096125;28;20028;-69
2022/05/19 05:08:18;;;;;;;71.30;51.92;;;;;;;17.57;100.00;101758.09;5103172;28;20028;-69
2022/05/19 05:10:43;;;;;;;67.57;50.30;;;;;;;17.56;100.00;101743.88;5093331;28;20036;-69
2022/05/19 05:13:12;;;;;;;76.55;53.42;;;;;;;17.62;100.00;101727.03;5091107;28;20026;-70
2022/05/19 05:15:38;;;;;;;73.47;53.70;;;;;;;17.66;100.00;101720.81;5090774;28;20020;-70
2022/05/19 05:18:07;;;;;;;66.82;50.28;;;;;;;17.69;100.00;101704.88;5094321;28;20103;-70
2022/05/19 05:20:34;;;;;;;69.53;52.92;;;;;;;17.73;100.00;101703.06;5092731;28;20047;-70
2022/05/19 05:22:59;;;;;;;68.97;50.40;;;;;;;17.72;100.00;101696.00;5095353;28;20067;-69
2022/05/19 05:25:29;;;;;;;78.20;56.05;;;;;;;17.75;100.00;101678.25;5106293;27;20124;-69
2022/05/19 05:27:54;;;;;;;72.50;54.78;;;;;;;17.79;100.00;101676.47;5091134;28;20348;-66
2022/05/19 05:30:20;;;;;;;76.90;55.80;;;;;;;17.81;100.00;101664.03;5098424;28;20027;-68
2022/05/19 05:32:45;;;;;;;71.75;51.40;;;;;;;17.77;100.00;101657.84;5093945;27;20024;-67
2022/05/19 05:35:11;;;;;;;66.20;46.58;;;;;;;17.80;100.00;101656.97;5093035;28;20045;-67
2022/05/19 05:37:36;;;;;;;60.58;44.30;;;;;;;17.75;100.00;101653.41;5095669;28;20382;-67
2022/05/19 05:40:03;;;;;;;63.88;47.85;;;;;;;17.81;100.00;101650.72;5086752;28;20020;-67
2022/05/19 05:42:28;;;;;;;62.95;43.80;;;;;;;17.86;100.00;101651.59;5085882;28;20032;-67
2022/05/19 05:44:54;;;;;;;58.20;44.58;;;;;;;17.87;100.00;101645.41;5086476;28;20054;-67
2022/05/19 05:47:19;;;;;;;62.10;41.10;;;;;;;17.90;100.00;101644.53;5093128;28;20124;-67
2022/05/19 05:49:44;;;;;;;55.50;39.42;;;;;;;17.87;100.00;101640.97;5098529;28;20050;-77
2022/05/19 05:52:10;;;;;;;51.63;40.38;;;;;;;17.91;100.00;101646.31;5091777;28;20050;-68
2022/05/19 05:54:35;;;;;;;46.17;36.33;;;;;;;17.93;100.00;101637.44;5093664;28;20024;-67
2022/05/19 05:57:01;;;;;;;48.60;37.67;;;;;;;17.94;100.00;101646.31;5093829;28;20056;-68
2022/05/19 05:59:26;;;;;;;46.67;35.60;;;;;;;17.93;100.00;101649.88;5100386;28;20027;-67
2022/05/19 06:01:51;;;;;;;46.15;35.28;;;;;;;17.92;100.00;101641.00;5092542;28;20028;-67
2022/05/19 06:04:17;;;;;;;40.35;33.58;;;;;;;17.91;100.00;101648.97;5084568;28;20025;-67
2022/05/19 06:06:45;;;;;;;49.25;37.88;;;;;;;17.96;100.00;101644.53;5085852;28;20491;-66
2022/05/19 06:09:11;;;;;;;54.78;37.47;;;;;;;18.05;100.00;101640.97;5088318;28;20036;-67
2022/05/19 06:11:37;;;;;;;47.47;32.63;;;;;;;18.11;100.00;101664.94;5087922;28;20038;-66
2022/05/19 06:14:02;;;;;;;44.17;33.30;;;;;;;18.11;100.00;101656.94;5084576;28;20110;-67
2022/05/19 06:16:28;;;;;;;45.92;33.00;;;;;;;18.13;100.00;101640.06;5082980;28;20445;-67
2022/05/19 06:18:53;;;;;;;46.08;32.03;;;;;;;18.18;100.00;101646.28;5090969;28;20478;-67
2022/05/19 06:21:19;;;;;;;42.38;31.25;;;;;;;18.24;100.00;101642.72;5085201;28;20428;-67
2022/05/19 06:23:44;;;;;;;40.22;31.15;;;;;;;18.27;100.00;101624.06;5083311;28;20376;-67
2022/05/19 06:26:09;;;;;;;36.63;28.38;;;;;;;18.22;100.00;101632.94;5086479;28;20625;-67
2022/05/19 06:28:35;;;;;;;40.97;28.15;;;;;;;18.25;100.00;101623.16;5087494;28;20028;-71
2022/05/19 06:31:01;;;;;;;33.95;27.25;;;;;;;18.29;100.00;101629.38;5087402;28;20525;-71
2022/05/19 06:33:28;;;;;;;34.50;27.40;;;;;;;18.34;100.00;101635.59;5088298;28;20432;-70
2022/05/19 06:35:53;;;;;;;38.03;27.95;;;;;;;18.41;100.00;101645.34;5086159;28;20024;-70
2022/05/19 06:38:18;;;;;;;34.28;26.38;;;;;;;18.42;100.00;101647.13;5085219;28;20513;-70
2022/05/19 06:40:44;;;;;;;30.90;25.38;;;;;;;18.44;100.00;101645.31;5086566;28;20021;-70
2022/05/19 06:43:11;;;;;;;30.88;24.48;;;;;;;18.47;100.00;101644.44;5091041;28;20031;-70
2022/05/19 06:45:36;;;;;;;32.08;23.63;;;;;;;18.52;100.00;101647.97;5095950;28;20040;-70
2022/05/19 06:48:02;;;;;;;33.28;24.38;;;;;;;18.59;100.00;101665.69;5087899;28;20031;-69
2022/05/19 06:50:28;;;;;;;31.02;22.95;;;;;;;18.67;100.00;101665.69;5083568;28;20036;-70
2022/05/19 06:52:59;;;;;;;26.50;20.65;;;;;;;18.70;100.00;101674.53;5095108;28;20066;-71
2022/05/19 06:55:25;;;;;;;27.73;20.83;;;;;;;18.84;100.00;101693.16;5089026;28;20027;-71
2022/05/19 06:57:50;;;;;;;29.42;22.77;;;;;;;18.90;100.00;101688.75;5081876;28;20032;-71
2022/05/19 07:00:19;;;;;;;28.35;21.63;;;;;;;18.97;100.00;101687.81;5081761;28;20372;-71
2022/05/19 07:02:49;;;;;;;26.13;19.92;;;;;;;18.95;100.00;101685.16;5080543;28;20524;-71
2022/05/19 07:05:16;;;;;;;24.73;18.40;;;;;;;19.05;100.00;101680.66;5101987;28;20020;-70
2022/05/19 07:07:42;;;;;;;18.90;15.13;;;;;;;19.09;100.00;101677.06;5093858;28;20110;-70
2022/05/19 07:10:09;;;;;;;20.30;15.27;;;;;;;19.06;100.00;101665.53;5092122;28;20087;-71
2022/05/19 07:12:37;;;;;;;19.33;14.80;;;;;;;19.20;100.00;101671.66;5092918;28;20050;-71
2022/05/19 07:15:03;;;;;;;20.52;17.25;;;;;;;19.23;100.00;101668.09;5094265;28;20012;-70
2022/05/19 07:17:28;;;;;;;24.58;18.60;;;;;;;19.24;100.00;101665.41;5100141;28;20071;-70
2022/05/19 07:22:37;;;;;;;26.27;17.60;;;;;;;19.29;100.00;101662.72;5105506;28;20055;-70
2022/05/19 07:25:08;;;;;;;19.27;15.75;;;;;;;19.35;100.00;101662.69;5094984;28;20036;-70
2022/05/19 07:27:35;;;;;;;16.65;14.70;;;;;;;19.38;100.00;101663.56;5093970;28;20042;-71
2022/05/19 07:30:01;;;;;;;18.85;11.63;;;;;;;19.32;100.00;101668.06;5097209;28;20062;-69
2022/05/19 07:32:27;;;;;;;16.23;11.63;;;;;;;19.36;100.00;101675.13;5098094;28;20518;-70
2022/05/19 07:34:54;;;;;;;15.25;11.15;;;;;;;19.44;100.00;101686.66;5101903;28;20474;-72
2022/05/19 07:37:20;;;;;;;14.18;11.15;;;;;;;19.45;100.00;101696.44;5110475;28;20023;-71
2022/05/19 07:39:45;;;;;;;15.55;11.45;;;;;;;19.50;100.00;101709.75;5113876;28;20024;-72
2022/05/19 07:42:11;;;;;;;15.32;10.45;;;;;;;19.47;100.00;101707.09;5098352;28;20107;-71
2022/05/19 07:44:36;;;;;;;16.33;9.88;;;;;;;19.37;100.00;101703.56;5092163;28;20032;-70
2022/05/19 07:47:02;;;;;;;12.48;10.52;;;;;;;19.35;100.00;101708.94;5093331;28;20028;-70
2022/05/19 07:49:27;;;;;;;12.70;9.43;;;;;;;19.36;100.00;101712.50;5096538;28;20020;-70
2022/05/19 07:51:52;;;;;;;10.68;9.35;;;;;;;19.33;100.00;101712.50;5101752;28;20425;-71
2022/05/19 07:54:22;;;;;;;13.98;9.98;;;;;;;19.35;100.00;101713.38;5113646;28;20027;-71
2022/05/19 07:56:48;;;;;;;12.80;10.63;;;;;;;19.36;100.00;101712.50;5098578;28;20081;-71
2022/05/19 07:59:15;;;;;;;11.95;10.75;;;;;;;19.42;100.00;101709.78;5095272;28;20547;-71
2022/05/19 08:01:42;;;;;;;10.55;9.35;;;;;;;19.58;100.00;101701.69;5100398;28;20024;-71
2022/05/19 08:04:08;;;;;;;15.10;9.40;;;;;;;19.68;100.00;101692.69;5107862;28;20038;-72
2022/05/19 08:06:34;;;;;;;12.07;9.65;;;;;;;19.76;100.00;101695.31;5107332;28;20027;-70
2022/05/19 08:09:01;;;;;;;17.10;9.82;;;;;;;19.78;100.00;101696.16;5095240;28;20108;-71
2022/05/19 08:11:29;;;;;;;13.25;10.05;;;;;;;19.87;100.00;101693.47;5091807;28;20047;-71
2022/05/19 08:16:39;;;;;;;12.57;9.80;;;;;;;20.12;100.00;101687.91;5092735;28;20441;-70
2022/05/19 08:19:05;;;;;;;14.25;9.82;;;;;;;20.37;100.00;101691.19;5095381;28;20024;-70
2022/05/19 08:21:31;;;;;;;13.13;9.43;;;;;;;20.43;100.00;101692.91;5093905;28;20035;-71
2022/05/19 08:23:56;;;;;;;12.63;9.15;;;;;;;20.60;100.00;101707.00;5091086;28;20566;-71
2022/05/19 08:26:22;;;;;;;13.73;8.93;;;;;;;20.86;100.00;101708.50;5091926;28;20028;-70
2022/05/19 08:28:49;;;;;;;16.65;11.45;;;;;;;20.93;100.00;101714.66;5099496;28;20028;-71
2022/05/19 08:31:22;;;;;;;12.00;8.98;;;;;;;20.92;100.00;101702.19;5091204;28;20020;-70
2022/05/19 08:33:51;;;;;;;18.20;10.52;;;;;;;20.71;100.00;101688.19;5098544;28;20036;-72
2022/05/19 08:36:16;;;;;;;12.98;10.50;;;;;;;20.71;100.00;101677.47;5101937;28;20105;-71
2022/05/19 08:38:42;;;;;;;15.95;11.35;;;;;;;20.79;100.00;101669.38;5087960;28;20036;-71
2022/05/19 08:41:30;;;;;;;14.77;10.20;;;;;;;20.93;100.00;101663.81;5091056;28;20044;-72
2022/05/19 08:44:04;;;;;;;13.10;10.32;;;;;;;21.12;100.00;101673.38;5084105;28;20021;-72
2022/05/19 08:46:33;;;;;;;12.13;10.15;;;;;;;21.26;100.00;101669.63;5082332;28;20036;-71
2022/05/19 08:49:06;;;;;;;12.80;10.25;;;;;;;21.48;100.00;101670.19;5081573;28;20419;-71
2022/05/19 08:51:38;;;;;;;12.10;10.20;;;;;;;21.66;100.00;101661.00;5082419;28;20039;-71
2022/05/19 08:54:06;;;;;;;13.85;8.70;;;;;;;21.89;100.00;101656.13;5085208;28;20020;-71
2022/05/19 08:56:39;;;;;;;10.38;8.18;;;;;;;22.01;100.00;101651.47;5092159;28;20015;-71
2022/05/19 08:59:17;;;;;;;10.95;8.43;;;;;;;22.16;100.00;101653.84;5088855;28;20128;-71
2022/05/19 09:01:59;;;;;;;9.75;8.35;;;;;;;22.10;100.00;101659.34;5093154;28;20546;-71
2022/05/19 09:04:40;;;;;;;8.43;7.30;;;;;;;22.07;100.00;101664.75;5095422;28;20024;-71
2022/05/19 09:10:44;;;;;;;12.57;8.68;;;;;;;21.98;100.00;101689.91;5088881;28;20050;-72
2022/05/19 09:13:45;;;;;;;8.20;7.33;;;;;;;22.14;100.00;101706.63;5093664;28;20032;-71
2022/05/19 09:16:17;;;;;;;9.82;7.75;;;;;;;22.17;100.00;101706.53;5083248;28;20426;-72
2022/05/19 09:18:57;;;;;;;9.32;7.75;;;;;;;22.16;100.00;101698.53;5096219;28;20027;-72
2022/05/19 09:21:23;;;;;;;8.85;6.85;;;;;;;22.24;100.00;101693.91;5094316;28;20035;-72
2022/05/19 09:23:48;;;;;;;11.88;7.68;;;;;;;22.29;100.00;101685.78;5091111;28;20046;-72
2022/05/19 09:26:52;;;;;;;13.75;7.03;;;;;;;22.38;100.00;101685.63;5085624;28;20020;-72
2022/05/19 09:29:33;;;;;;;8.10;6.50;;;;;;;22.53;100.00;101688.03;5084220;28;20035;-73
2022/05/19 09:32:31;;;;;;;6.97;5.47;;;;;;;22.67;100.00;101689.56;5081628;28;20035;-72
2022/05/19 09:35:15;;;;;;;8.43;5.97;;;;;;;22.85;100.00;101678.41;5079982;28;20060;-72
2022/05/19 09:37:44;;;;;;;9.68;6.38;;;;;;;23.02;100.00;101670.00;5093912;28;20016;-71
2022/05/19 09:40:10;;;;;;;8.63;6.18;;;;;;;23.09;100.00;101668.06;5112733;28;20039;-72
2022/05/19 09:42:50;;;;;;;6.70;4.70;;;;;;;23.22;100.00;101674.06;5116463;27;20068;-72
2022/05/19 09:45:20;;;;;;;7.18;5.53;;;;;;;23.44;100.00;101674.47;5101025;28;20552;-70
2022/05/19 09:47:49;;;;;;;7.97;4.78;;;;;;;23.67;100.00;101664.94;5106491;28;20020;-70
2022/05/19 09:50:21;;;;;;;6.45;5.25;;;;;;;23.78;100.00;101661.97;5093974;28;20039;-70
2022/05/19 09:52:47;;;;;;;7.57;4.32;;;;;;;23.97;100.00;101639.13;5109154;28;20027;-70
2022/05/19 09:55:15;;;;;;;7.85;4.78;;;;;;;24.04;100.00;101638.03;5115867;28;20046;-70
2022/05/19 09:57:56;;;;;;;8.27;4.50;;;;;;;24.15;100.00;101635.03;5108839;28;20027;-70
2022/05/19 10:00:32;;;;;;;6.05;3.55;;;;;;;24.38;98.21;101630.81;5094857;28;20035;-71
2022/05/19 10:02:59;;;;;;;5.38;2.78;;;;;;;24.36;98.40;101648.81;5111375;28;20100;-71
2022/05/19 10:05:32;;;;;;;6.03;3.00;;;;;;;24.29;93.39;101652.59;5101761;27;20089;-71
2022/05/19 10:08:04;;;;;;;;;;;;;;;24.06;93.15;101643.34;5105084;28;20028;-71
2022/05/19 10:10:32;;;;;;;4.93;2.85;;;;;;;23.91;88.96;101636.59;5107200;28;19918;-71
2022/05/19 10:13:04;;;;;;;3.22;2.75;;;;;;;23.80;96.88;101644.91;5096576;28;20493;-71
2022/05/19 10:15:40;;;;;;;7.70;3.10;;;;;;;23.90;94.79;101648.25;5093983;28;20024;-71
2022/05/19 10:18:36;;;;;;;7.63;3.78;;;;;;;23.86;94.28;101646.53;5103355;28;20032;-71
2022/05/19 10:21:05;;;;;;;4.60;2.85;;;;;;;23.87;94.00;101649.19;5099216;28;20075;-71
2022/05/19 10:23:36;;;;;;;4.70;2.80;;;;;;;23.88;91.85;101653.66;5095047;28;20024;-71
2022/05/19 10:26:22;;;;;;;4.82;3.20;;;;;;;23.71;90.82;101663.94;5094548;28;20357;-71
2022/05/19 10:31:44;;;;;;;7.38;3.00;;;;;;;23.40;92.07;101678.16;5093866;28;20043;-70
2022/05/19 10:34:20;;;;;;;5.60;3.50;;;;;;;23.26;92.33;101674.91;5089961;28;20039;-70
2022/05/19 10:37:19;;;;;;;4.75;3.35;;;;;;;22.90;93.59;101684.59;5089554;28;20517;-71
2022/05/19 10:40:18;;;;;;;6.47;4.10;;;;;;;22.76;95.13;101692.03;5082050;28;20035;-71
2022/05/19 10:42:58;;;;;;;6.43;3.70;;;;;;;22.64;96.59;101708.38;5114318;28;20030;-71
2022/05/19 10:45:32;;;;;;;5.75;4.50;;;;;;;22.53;97.33;101706.81;5095211;28;20119;-71
2022/05/19 10:48:36;;;;;;;6.63;4.55;;;;;;;22.41;97.83;101715.09;5102701;28;20061;-71
2022/05/19 10:51:18;;;;;;;6.70;4.85;;;;;;;22.28;99.60;101743.00;5086121;28;20035;-71
2022/05/19 10:53:57;;;;;;;6.93;5.28;;;;;;;22.15;100.00;101748.59;5094322;28;20511;-72
2022/05/19 10:56:38;;;;;;;15.25;7.63;;;;;;;21.58;100.00;101772.72;5084759;28;20028;-70
2022/05/19 10:59:16;;;;;;;16.42;11.32;;;;;;;20.28;100.00;101800.88;5081291;28;20027;-69
2022/05/19 11:02:00;;;;;;;21.40;14.68;;;;;;;19.81;100.00;101822.59;5095970;28;20380;-70
2022/05/19 11:04:33;;;;;;;;;;;;;;;19.39;100.00;101840.59;5104490;28;20029;-70
2022/05/19 11:07:04;;;;;;;29.17;21.03;;;;;;;19.02;100.00;101843.38;5095593;28;19920;-69
2022/05/19 11:10:00;;;;;;;32.47;24.65;;;;;;;18.85;100.00;101838.91;5092676;28;20317;-69
2022/05/19 11:12:43;;;;;;;32.33;24.38;;;;;;;18.79;100.00;101832.75;5093994;28;20020;-69
2022/05/19 11:15:23;;;;;;;28.35;23.17;;;;;;;18.62;100.00;101827.41;5093521;28;20028;-71
2022/05/19 11:17:56;;;;;;;33.45;24.83;;;;;;;18.53;100.00;101847.88;5093523;28;20115;-70
2022/05/19 11:20:26;;;;;;;30.80;24.47;;;;;;;18.46;100.00;101850.53;5091859;28;20040;-70
2022/05/19 11:23:15;;;;;;;43.67;32.80;;;;;;;18.44;100.00;101855.84;5096178;28;20463;-69
2022/05/19 11:29:05;;;;;;;34.45;27.27;;;;;;;18.31;100.00;101840.75;5112560;28;20040;-69
2022/05/19 11:31:54;;;;;;;32.17;25.50;;;;;;;18.24;100.00;101844.31;5103293;28;20479;-69
2022/05/19 11:34:27;;;;;;;31.05;25.73;;;;;;;18.18;100.00;101842.53;5097420;28;20115;-69